sensor_id;sensor_type;location;lat;lon;timestamp;P1;durP1;ratioP1;P2;durP2;ratioP2
29732;SDS011;16643;43.158;25.302;2023-04-08T00:00:15;30.88;;;19.55;;
29732;SDS011;16643;43.158;25.302;2023-04-08T00:02:40;30.63;;;20.05;;
29732;SDS011;16643;43.158;25.302;2023-04-08T00:05:07;35.25;;;18.90;;
29732;SDS011;16643;43.158;25.302;2023-04-08T00:07:32;31.58;;;21.20;;
29732;SDS011;16643;43.158;25.302;2023-04-08T00:09:58;36.92;;;22.33;;
29732;SDS011;16643;43.158;25.302;2023-04-08T00:12:24;35.70;;;22.77;;
29732;SDS011;16643;43.158;25.302;2023-04-08T00:14:50;33.17;;;20.52;;
29732;SDS011;16643;43.158;25.302;2023-04-08T00:17:16;33.80;;;21.38;;
29732;SDS011;16643;43.158;25.302;2023-04-08T00:19:42;34.90;;;22.70;;
29732;SDS011;16643;43.158;25.302;2023-04-08T00:22:08;35.05;;;21.73;;
29732;SDS011;16643;43.158;25.302;2023-04-08T00:24:34;36.90;;;22.20;;
29732;SDS011;16643;43.158;25.302;2023-04-08T00:27:00;34.95;;;22.40;;
29732;SDS011;16643;43.158;25.302;2023-04-08T00:29:27;35.65;;;22.27;;
29732;SDS011;16643;43.158;25.302;2023-04-08T00:31:52;38.13;;;24.15;;
29732;SDS011;16643;43.158;25.302;2023-04-08T00:34:19;38.25;;;22.95;;
29732;SDS011;16643;43.158;25.302;2023-04-08T00:36:45;37.22;;;23.65;;
29732;SDS011;16643;43.158;25.302;2023-04-08T00:41:39;36.75;;;24.23;;
29732;SDS011;16643;43.158;25.302;2023-04-08T00:44:05;36.85;;;23.73;;
29732;SDS011;16643;43.158;25.302;2023-04-08T00:46:32;36.58;;;22.45;;
29732;SDS011;16643;43.158;25.302;2023-04-08T00:49:02;36.53;;;22.40;;
29732;SDS011;16643;43.158;25.302;2023-04-08T00:51:29;36.63;;;22.95;;
29732;SDS011;16643;43.158;25.302;2023-04-08T00:53:55;42.17;;;22.55;;
29732;SDS011;16643;43.158;25.302;2023-04-08T00:56:21;35.38;;;22.48;;
29732;SDS011;16643;43.158;25.302;2023-04-08T00:58:48;34.20;;;21.83;;
29732;SDS011;16643;43.158;25.302;2023-04-08T01:01:24;33.78;;;21.40;;
29732;SDS011;16643;43.158;25.302;2023-04-08T01:06:56;35.03;;;21.63;;
29732;SDS011;16643;43.158;25.302;2023-04-08T01:09:29;32.47;;;20.13;;
29732;SDS011;16643;43.158;25.302;2023-04-08T01:11:57;34.53;;;21.88;;
29732;SDS011;16643;43.158;25.302;2023-04-08T01:14:28;32.33;;;21.77;;
29732;SDS011;16643;43.158;25.302;2023-04-08T01:16:57;30.73;;;20.33;;
29732;SDS011;16643;43.158;25.302;2023-04-08T01:19:29;29.95;;;20.05;;
29732;SDS011;16643;43.158;25.302;2023-04-08T01:24:43;32.65;;;19.83;;
29732;SDS011;16643;43.158;25.302;2023-04-08T01:27:11;34.03;;;21.90;;
29732;SDS011;16643;43.158;25.302;2023-04-08T01:29:39;35.45;;;21.60;;
29732;SDS011;16643;43.158;25.302;2023-04-08T01:32:07;30.88;;;19.83;;
29732;SDS011;16643;43.158;25.302;2023-04-08T01:34:35;32.90;;;21.23;;
29732;SDS011;16643;43.158;25.302;2023-04-08T01:37:02;36.92;;;21.55;;
29732;SDS011;16643;43.158;25.302;2023-04-08T01:39:29;34.13;;;21.13;;
29732;SDS011;16643;43.158;25.302;2023-04-08T01:41:56;33.88;;;22.10;;
29732;SDS011;16643;43.158;25.302;2023-04-08T01:44:23;33.92;;;21.67;;
29732;SDS011;16643;43.158;25.302;2023-04-08T01:46:51;32.35;;;21.55;;
29732;SDS011;16643;43.158;25.302;2023-04-08T01:49:18;34.50;;;21.27;;
29732;SDS011;16643;43.158;25.302;2023-04-08T01:51:45;30.13;;;20.60;;
29732;SDS011;16643;43.158;25.302;2023-04-08T01:54:12;34.60;;;21.57;;
29732;SDS011;16643;43.158;25.302;2023-04-08T01:56:39;33.25;;;19.60;;
29732;SDS011;16643;43.158;25.302;2023-04-08T01:59:09;34.65;;;21.40;;
29732;SDS011;16643;43.158;25.302;2023-04-08T02:01:37;32.85;;;20.95;;
29732;SDS011;16643;43.158;25.302;2023-04-08T02:04:04;30.85;;;20.30;;
29732;SDS011;16643;43.158;25.302;2023-04-08T02:06:29;33.40;;;21.40;;
29732;SDS011;16643;43.158;25.302;2023-04-08T02:08:56;37.42;;;23.08;;
29732;SDS011;16643;43.158;25.302;2023-04-08T02:11:23;34.05;;;21.98;;
29732;SDS011;16643;43.158;25.302;2023-04-08T02:13:49;37.92;;;24.02;;
29732;SDS011;16643;43.158;25.302;2023-04-08T02:16:23;36.47;;;21.67;;
29732;SDS011;16643;43.158;25.302;2023-04-08T02:18:59;36.88;;;22.40;;
29732;SDS011;16643;43.158;25.302;2023-04-08T02:21:32;33.67;;;21.88;;
29732;SDS011;16643;43.158;25.302;2023-04-08T02:24:05;38.50;;;24.50;;
29732;SDS011;16643;43.158;25.302;2023-04-08T02:26:33;42.55;;;23.20;;
29732;SDS011;16643;43.158;25.302;2023-04-08T02:29:01;35.40;;;22.83;;
29732;SDS011;16643;43.158;25.302;2023-04-08T02:31:29;34.63;;;23.77;;
29732;SDS011;16643;43.158;25.302;2023-04-08T02:33:56;34.38;;;21.52;;
29732;SDS011;16643;43.158;25.302;2023-04-08T02:36:22;33.60;;;21.40;;
29732;SDS011;16643;43.158;25.302;2023-04-08T02:38:50;35.67;;;22.23;;
29732;SDS011;16643;43.158;25.302;2023-04-08T02:41:15;30.30;;;19.02;;
29732;SDS011;16643;43.158;25.302;2023-04-08T02:43:41;31.45;;;20.13;;
29732;SDS011;16643;43.158;25.302;2023-04-08T02:46:07;31.77;;;20.05;;
29732;SDS011;16643;43.158;25.302;2023-04-08T02:48:35;32.55;;;21.55;;
29732;SDS011;16643;43.158;25.302;2023-04-08T02:51:01;34.13;;;20.58;;
29732;SDS011;16643;43.158;25.302;2023-04-08T02:53:26;32.88;;;20.92;;
29732;SDS011;16643;43.158;25.302;2023-04-08T02:55:52;32.53;;;19.05;;
29732;SDS011;16643;43.158;25.302;2023-04-08T02:58:18;36.47;;;21.27;;
29732;SDS011;16643;43.158;25.302;2023-04-08T03:00:43;31.08;;;19.13;;
29732;SDS011;16643;43.158;25.302;2023-04-08T03:03:09;27.80;;;17.85;;
29732;SDS011;16643;43.158;25.302;2023-04-08T03:05:35;27.58;;;18.30;;
29732;SDS011;16643;43.158;25.302;2023-04-08T03:08:00;32.10;;;19.52;;
29732;SDS011;16643;43.158;25.302;2023-04-08T03:10:26;33.42;;;21.88;;
29732;SDS011;16643;43.158;25.302;2023-04-08T03:12:52;34.72;;;21.88;;
29732;SDS011;16643;43.158;25.302;2023-04-08T03:15:17;34.97;;;20.05;;
29732;SDS011;16643;43.158;25.302;2023-04-08T03:17:43;34.08;;;21.98;;
29732;SDS011;16643;43.158;25.302;2023-04-08T03:20:09;31.92;;;21.02;;
29732;SDS011;16643;43.158;25.302;2023-04-08T03:22:35;34.40;;;21.63;;
29732;SDS011;16643;43.158;25.302;2023-04-08T03:25:01;40.40;;;23.67;;
29732;SDS011;16643;43.158;25.302;2023-04-08T03:27:27;38.10;;;23.45;;
29732;SDS011;16643;43.158;25.302;2023-04-08T03:29:53;39.15;;;23.50;;
29732;SDS011;16643;43.158;25.302;2023-04-08T03:32:19;41.47;;;23.67;;
29732;SDS011;16643;43.158;25.302;2023-04-08T03:34:44;37.65;;;23.60;;
29732;SDS011;16643;43.158;25.302;2023-04-08T03:37:10;36.38;;;22.95;;
29732;SDS011;16643;43.158;25.302;2023-04-08T03:39:36;36.85;;;23.33;;
29732;SDS011;16643;43.158;25.302;2023-04-08T03:42:02;39.13;;;23.88;;
29732;SDS011;16643;43.158;25.302;2023-04-08T03:44:28;36.20;;;23.85;;
29732;SDS011;16643;43.158;25.302;2023-04-08T03:46:54;40.05;;;23.92;;
29732;SDS011;16643;43.158;25.302;2023-04-08T03:49:19;38.75;;;23.55;;
29732;SDS011;16643;43.158;25.302;2023-04-08T03:51:45;39.33;;;23.38;;
29732;SDS011;16643;43.158;25.302;2023-04-08T03:54:10;39.78;;;24.83;;
29732;SDS011;16643;43.158;25.302;2023-04-08T03:56:36;39.47;;;23.92;;
29732;SDS011;16643;43.158;25.302;2023-04-08T03:59:02;37.78;;;23.35;;
29732;SDS011;16643;43.158;25.302;2023-04-08T04:01:27;33.53;;;22.30;;
29732;SDS011;16643;43.158;25.302;2023-04-08T04:03:54;38.50;;;24.70;;
29732;SDS011;16643;43.158;25.302;2023-04-08T04:06:20;39.63;;;24.67;;
29732;SDS011;16643;43.158;25.302;2023-04-08T04:08:45;38.92;;;24.55;;
29732;SDS011;16643;43.158;25.302;2023-04-08T04:11:11;49.13;;;24.17;;
29732;SDS011;16643;43.158;25.302;2023-04-08T04:13:36;34.97;;;22.10;;
29732;SDS011;16643;43.158;25.302;2023-04-08T04:16:02;36.28;;;23.48;;
29732;SDS011;16643;43.158;25.302;2023-04-08T04:18:28;40.75;;;24.08;;
29732;SDS011;16643;43.158;25.302;2023-04-08T04:20:53;33.83;;;22.52;;
29732;SDS011;16643;43.158;25.302;2023-04-08T04:23:19;37.47;;;24.23;;
29732;SDS011;16643;43.158;25.302;2023-04-08T04:25:45;38.95;;;24.73;;
29732;SDS011;16643;43.158;25.302;2023-04-08T04:28:11;38.45;;;23.48;;
29732;SDS011;16643;43.158;25.302;2023-04-08T04:30:39;39.17;;;24.70;;
29732;SDS011;16643;43.158;25.302;2023-04-08T04:33:05;38.00;;;23.23;;
29732;SDS011;16643;43.158;25.302;2023-04-08T04:35:31;36.25;;;23.58;;
29732;SDS011;16643;43.158;25.302;2023-04-08T04:37:57;43.65;;;25.80;;
29732;SDS011;16643;43.158;25.302;2023-04-08T04:40:22;40.40;;;25.67;;
29732;SDS011;16643;43.158;25.302;2023-04-08T04:42:48;39.90;;;24.27;;
29732;SDS011;16643;43.158;25.302;2023-04-08T04:45:14;41.53;;;26.45;;
29732;SDS011;16643;43.158;25.302;2023-04-08T04:47:39;43.22;;;26.52;;
29732;SDS011;16643;43.158;25.302;2023-04-08T04:50:05;39.78;;;24.98;;
29732;SDS011;16643;43.158;25.302;2023-04-08T04:52:31;42.45;;;24.17;;
29732;SDS011;16643;43.158;25.302;2023-04-08T04:54:57;40.13;;;25.85;;
29732;SDS011;16643;43.158;25.302;2023-04-08T04:57:23;41.85;;;25.77;;
29732;SDS011;16643;43.158;25.302;2023-04-08T04:59:48;40.85;;;25.83;;
29732;SDS011;16643;43.158;25.302;2023-04-08T05:02:14;38.60;;;25.30;;
29732;SDS011;16643;43.158;25.302;2023-04-08T05:04:40;39.78;;;25.15;;
29732;SDS011;16643;43.158;25.302;2023-04-08T05:07:06;37.10;;;23.98;;
29732;SDS011;16643;43.158;25.302;2023-04-08T05:09:31;37.92;;;23.67;;
29732;SDS011;16643;43.158;25.302;2023-04-08T05:11:57;41.20;;;25.83;;
29732;SDS011;16643;43.158;25.302;2023-04-08T05:14:23;41.08;;;25.67;;
29732;SDS011;16643;43.158;25.302;2023-04-08T05:16:48;40.17;;;24.13;;
29732;SDS011;16643;43.158;25.302;2023-04-08T05:19:14;41.70;;;24.98;;
29732;SDS011;16643;43.158;25.302;2023-04-08T05:21:40;42.58;;;25.35;;
29732;SDS011;16643;43.158;25.302;2023-04-08T05:24:06;37.72;;;23.30;;
29732;SDS011;16643;43.158;25.302;2023-04-08T05:26:31;37.03;;;22.70;;
29732;SDS011;16643;43.158;25.302;2023-04-08T05:28:57;39.67;;;25.58;;
29732;SDS011;16643;43.158;25.302;2023-04-08T05:31:23;39.60;;;24.83;;
29732;SDS011;16643;43.158;25.302;2023-04-08T05:33:49;37.38;;;23.98;;
29732;SDS011;16643;43.158;25.302;2023-04-08T05:36:14;44.28;;;28.58;;
29732;SDS011;16643;43.158;25.302;2023-04-08T05:38:40;42.35;;;25.63;;
29732;SDS011;16643;43.158;25.302;2023-04-08T05:41:09;42.88;;;26.45;;
29732;SDS011;16643;43.158;25.302;2023-04-08T05:43:35;43.42;;;26.27;;
29732;SDS011;16643;43.158;25.302;2023-04-08T05:46:07;41.30;;;26.40;;
29732;SDS011;16643;43.158;25.302;2023-04-08T05:48:34;43.45;;;26.08;;
29732;SDS011;16643;43.158;25.302;2023-04-08T05:51:00;37.88;;;25.08;;
29732;SDS011;16643;43.158;25.302;2023-04-08T05:53:26;36.45;;;24.42;;
29732;SDS011;16643;43.158;25.302;2023-04-08T05:55:52;38.83;;;23.88;;
29732;SDS011;16643;43.158;25.302;2023-04-08T05:58:18;35.85;;;22.90;;
29732;SDS011;16643;43.158;25.302;2023-04-08T06:00:43;37.17;;;23.33;;
29732;SDS011;16643;43.158;25.302;2023-04-08T06:03:09;39.53;;;24.35;;
29732;SDS011;16643;43.158;25.302;2023-04-08T06:05:35;32.55;;;22.00;;
29732;SDS011;16643;43.158;25.302;2023-04-08T06:08:00;37.50;;;23.00;;
29732;SDS011;16643;43.158;25.302;2023-04-08T06:10:26;32.30;;;20.50;;
29732;SDS011;16643;43.158;25.302;2023-04-08T06:12:51;32.22;;;21.55;;
29732;SDS011;16643;43.158;25.302;2023-04-08T06:15:17;32.75;;;21.95;;
29732;SDS011;16643;43.158;25.302;2023-04-08T06:17:43;31.35;;;20.85;;
29732;SDS011;16643;43.158;25.302;2023-04-08T06:20:08;29.38;;;19.50;;
29732;SDS011;16643;43.158;25.302;2023-04-08T06:22:34;30.63;;;20.10;;
29732;SDS011;16643;43.158;25.302;2023-04-08T06:25:01;30.73;;;21.48;;
29732;SDS011;16643;43.158;25.302;2023-04-08T06:27:27;32.60;;;20.75;;
29732;SDS011;16643;43.158;25.302;2023-04-08T06:29:52;32.45;;;19.35;;
29732;SDS011;16643;43.158;25.302;2023-04-08T06:32:19;28.58;;;19.08;;
29732;SDS011;16643;43.158;25.302;2023-04-08T06:34:45;28.88;;;18.85;;
29732;SDS011;16643;43.158;25.302;2023-04-08T06:37:11;29.10;;;20.30;;
29732;SDS011;16643;43.158;25.302;2023-04-08T06:39:37;30.67;;;19.52;;
29732;SDS011;16643;43.158;25.302;2023-04-08T06:42:02;30.80;;;19.98;;
29732;SDS011;16643;43.158;25.302;2023-04-08T06:44:28;31.38;;;18.90;;
29732;SDS011;16643;43.158;25.302;2023-04-08T06:46:54;25.63;;;17.60;;
29732;SDS011;16643;43.158;25.302;2023-04-08T06:49:20;27.25;;;19.05;;
29732;SDS011;16643;43.158;25.302;2023-04-08T06:51:45;26.55;;;18.25;;
29732;SDS011;16643;43.158;25.302;2023-04-08T06:54:11;29.40;;;18.45;;
29732;SDS011;16643;43.158;25.302;2023-04-08T06:56:37;26.45;;;17.75;;
29732;SDS011;16643;43.158;25.302;2023-04-08T06:59:02;26.92;;;17.17;;
29732;SDS011;16643;43.158;25.302;2023-04-08T07:01:29;37.92;;;21.85;;
29732;SDS011;16643;43.158;25.302;2023-04-08T07:03:56;32.92;;;21.38;;
29732;SDS011;16643;43.158;25.302;2023-04-08T07:06:22;28.95;;;19.63;;
29732;SDS011;16643;43.158;25.302;2023-04-08T07:08:48;27.23;;;18.60;;
29732;SDS011;16643;43.158;25.302;2023-04-08T07:11:14;31.17;;;19.20;;
29732;SDS011;16643;43.158;25.302;2023-04-08T07:13:40;28.90;;;19.00;;
29732;SDS011;16643;43.158;25.302;2023-04-08T07:16:06;31.10;;;20.92;;
29732;SDS011;16643;43.158;25.302;2023-04-08T07:18:32;31.42;;;20.00;;
29732;SDS011;16643;43.158;25.302;2023-04-08T07:20:57;30.05;;;18.83;;
29732;SDS011;16643;43.158;25.302;2023-04-08T07:23:25;27.38;;;18.52;;
29732;SDS011;16643;43.158;25.302;2023-04-08T07:25:50;28.70;;;19.25;;
29732;SDS011;16643;43.158;25.302;2023-04-08T07:28:16;26.88;;;19.02;;
29732;SDS011;16643;43.158;25.302;2023-04-08T07:30:42;33.78;;;20.67;;
29732;SDS011;16643;43.158;25.302;2023-04-08T07:33:08;31.52;;;21.02;;
29732;SDS011;16643;43.158;25.302;2023-04-08T07:35:33;25.45;;;19.23;;
29732;SDS011;16643;43.158;25.302;2023-04-08T07:37:59;27.10;;;17.67;;
29732;SDS011;16643;43.158;25.302;2023-04-08T07:40:25;29.10;;;19.67;;
29732;SDS011;16643;43.158;25.302;2023-04-08T07:42:50;30.33;;;18.92;;
29732;SDS011;16643;43.158;25.302;2023-04-08T07:45:16;29.58;;;19.70;;
29732;SDS011;16643;43.158;25.302;2023-04-08T07:47:42;28.48;;;20.33;;
29732;SDS011;16643;43.158;25.302;2023-04-08T07:50:08;25.25;;;17.70;;
29732;SDS011;16643;43.158;25.302;2023-04-08T07:52:34;26.13;;;19.17;;
29732;SDS011;16643;43.158;25.302;2023-04-08T07:54:59;26.48;;;17.30;;
29732;SDS011;16643;43.158;25.302;2023-04-08T07:57:26;24.63;;;18.00;;
29732;SDS011;16643;43.158;25.302;2023-04-08T07:59:51;25.20;;;17.00;;
29732;SDS011;16643;43.158;25.302;2023-04-08T08:02:17;25.13;;;17.10;;
29732;SDS011;16643;43.158;25.302;2023-04-08T08:04:43;28.80;;;18.73;;
29732;SDS011;16643;43.158;25.302;2023-04-08T08:07:08;29.60;;;19.30;;
29732;SDS011;16643;43.158;25.302;2023-04-08T08:09:34;23.77;;;17.33;;
29732;SDS011;16643;43.158;25.302;2023-04-08T08:12:00;21.98;;;16.15;;
29732;SDS011;16643;43.158;25.302;2023-04-08T08:14:26;24.55;;;17.42;;
29732;SDS011;16643;43.158;25.302;2023-04-08T08:16:54;25.15;;;18.70;;
29732;SDS011;16643;43.158;25.302;2023-04-08T08:19:20;23.13;;;17.50;;
29732;SDS011;16643;43.158;25.302;2023-04-08T08:21:46;21.73;;;14.93;;
29732;SDS011;16643;43.158;25.302;2023-04-08T08:24:12;23.67;;;16.40;;
29732;SDS011;16643;43.158;25.302;2023-04-08T08:26:38;22.17;;;16.88;;
29732;SDS011;16643;43.158;25.302;2023-04-08T08:29:04;23.73;;;17.58;;
29732;SDS011;16643;43.158;25.302;2023-04-08T08:31:32;24.17;;;17.83;;
29732;SDS011;16643;43.158;25.302;2023-04-08T08:33:59;24.67;;;18.10;;
29732;SDS011;16643;43.158;25.302;2023-04-08T08:36:24;25.02;;;17.45;;
29732;SDS011;16643;43.158;25.302;2023-04-08T08:38:51;21.88;;;16.52;;
29732;SDS011;16643;43.158;25.302;2023-04-08T08:41:18;21.65;;;16.45;;
29732;SDS011;16643;43.158;25.302;2023-04-08T08:43:45;19.88;;;15.40;;
29732;SDS011;16643;43.158;25.302;2023-04-08T08:46:11;24.75;;;17.30;;
29732;SDS011;16643;43.158;25.302;2023-04-08T08:48:36;22.10;;;16.08;;
29732;SDS011;16643;43.158;25.302;2023-04-08T08:51:11;20.98;;;16.30;;
29732;SDS011;16643;43.158;25.302;2023-04-08T08:53:38;24.08;;;16.95;;
29732;SDS011;16643;43.158;25.302;2023-04-08T08:56:09;24.40;;;17.45;;
29732;SDS011;16643;43.158;25.302;2023-04-08T08:58:35;23.33;;;17.80;;
29732;SDS011;16643;43.158;25.302;2023-04-08T09:01:01;20.80;;;16.92;;
29732;SDS011;16643;43.158;25.302;2023-04-08T09:03:27;20.00;;;15.85;;
29732;SDS011;16643;43.158;25.302;2023-04-08T09:05:56;21.40;;;16.38;;
29732;SDS011;16643;43.158;25.302;2023-04-08T09:13:42;23.60;;;17.23;;
29732;SDS011;16643;43.158;25.302;2023-04-08T09:16:12;21.88;;;16.77;;
29732;SDS011;16643;43.158;25.302;2023-04-08T09:18:42;23.92;;;16.52;;
29732;SDS011;16643;43.158;25.302;2023-04-08T09:21:13;23.13;;;16.80;;
29732;SDS011;16643;43.158;25.302;2023-04-08T09:23:44;25.45;;;16.70;;
29732;SDS011;16643;43.158;25.302;2023-04-08T09:26:17;24.23;;;17.50;;
29732;SDS011;16643;43.158;25.302;2023-04-08T09:28:58;22.05;;;16.08;;
29732;SDS011;16643;43.158;25.302;2023-04-08T09:31:28;22.52;;;15.50;;
29732;SDS011;16643;43.158;25.302;2023-04-08T09:33:55;24.83;;;17.23;;
29732;SDS011;16643;43.158;25.302;2023-04-08T09:36:23;24.17;;;16.83;;
29732;SDS011;16643;43.158;25.302;2023-04-08T09:38:50;26.15;;;16.80;;
29732;SDS011;16643;43.158;25.302;2023-04-08T09:41:17;25.95;;;17.65;;
29732;SDS011;16643;43.158;25.302;2023-04-08T09:47:07;21.17;;;15.40;;
29732;SDS011;16643;43.158;25.302;2023-04-08T09:49:17;22.58;;;15.77;;
29732;SDS011;16643;43.158;25.302;2023-04-08T09:54:41;25.55;;;15.35;;
29732;SDS011;16643;43.158;25.302;2023-04-08T09:57:16;21.10;;;15.40;;
29732;SDS011;16643;43.158;25.302;2023-04-08T09:59:51;21.27;;;14.77;;
29732;SDS011;16643;43.158;25.302;2023-04-08T10:02:24;21.17;;;15.38;;
29732;SDS011;16643;43.158;25.302;2023-04-08T10:04:55;20.08;;;14.85;;
29732;SDS011;16643;43.158;25.302;2023-04-08T10:07:24;19.42;;;14.45;;
29732;SDS011;16643;43.158;25.302;2023-04-08T10:09:50;20.13;;;13.98;;
29732;SDS011;16643;43.158;25.302;2023-04-08T10:12:16;20.63;;;13.77;;
29732;SDS011;16643;43.158;25.302;2023-04-08T10:15:10;17.77;;;13.32;;
29732;SDS011;16643;43.158;25.302;2023-04-08T10:17:53;29.98;;;18.58;;
29732;SDS011;16643;43.158;25.302;2023-04-08T10:23:06;21.48;;;13.85;;
29732;SDS011;16643;43.158;25.302;2023-04-08T10:25:33;18.80;;;11.95;;
29732;SDS011;16643;43.158;25.302;2023-04-08T10:30:44;22.58;;;14.95;;
29732;SDS011;16643;43.158;25.302;2023-04-08T10:35:46;33.63;;;21.95;;
29732;SDS011;16643;43.158;25.302;2023-04-08T10:38:14;26.23;;;15.75;;
29732;SDS011;16643;43.158;25.302;2023-04-08T10:40:41;22.23;;;14.43;;
29732;SDS011;16643;43.158;25.302;2023-04-08T10:43:08;32.03;;;17.75;;
29732;SDS011;16643;43.158;25.302;2023-04-08T10:45:35;23.53;;;15.33;;
29732;SDS011;16643;43.158;25.302;2023-04-08T10:48:19;18.85;;;12.48;;
29732;SDS011;16643;43.158;25.302;2023-04-08T10:50:53;18.63;;;13.98;;
29732;SDS011;16643;43.158;25.302;2023-04-08T10:53:24;20.48;;;15.00;;
29732;SDS011;16643;43.158;25.302;2023-04-08T10:56:18;18.88;;;12.95;;
29732;SDS011;16643;43.158;25.302;2023-04-08T10:58:50;16.35;;;12.02;;
29732;SDS011;16643;43.158;25.302;2023-04-08T11:01:17;17.88;;;12.63;;
29732;SDS011;16643;43.158;25.302;2023-04-08T11:03:43;18.65;;;12.45;;
29732;SDS011;16643;43.158;25.302;2023-04-08T11:06:09;20.98;;;14.18;;
29732;SDS011;16643;43.158;25.302;2023-04-08T11:08:35;19.75;;;13.35;;
29732;SDS011;16643;43.158;25.302;2023-04-08T11:11:02;18.00;;;12.23;;
29732;SDS011;16643;43.158;25.302;2023-04-08T11:13:32;15.52;;;11.48;;
29732;SDS011;16643;43.158;25.302;2023-04-08T11:16:00;16.83;;;12.05;;
29732;SDS011;16643;43.158;25.302;2023-04-08T11:18:29;15.13;;;11.50;;
29732;SDS011;16643;43.158;25.302;2023-04-08T11:20:55;16.25;;;12.20;;
29732;SDS011;16643;43.158;25.302;2023-04-08T11:23:23;16.00;;;11.30;;
29732;SDS011;16643;43.158;25.302;2023-04-08T11:25:49;14.77;;;10.77;;
29732;SDS011;16643;43.158;25.302;2023-04-08T11:28:15;13.38;;;9.57;;
29732;SDS011;16643;43.158;25.302;2023-04-08T11:30:41;15.38;;;11.35;;
29732;SDS011;16643;43.158;25.302;2023-04-08T11:33:08;13.52;;;10.80;;
29732;SDS011;16643;43.158;25.302;2023-04-08T11:35:38;15.23;;;11.38;;
29732;SDS011;16643;43.158;25.302;2023-04-08T11:38:07;15.55;;;9.93;;
29732;SDS011;16643;43.158;25.302;2023-04-08T11:40:34;13.70;;;10.73;;
29732;SDS011;16643;43.158;25.302;2023-04-08T11:43:07;13.55;;;10.93;;
29732;SDS011;16643;43.158;25.302;2023-04-08T11:45:37;13.10;;;9.32;;
29732;SDS011;16643;43.158;25.302;2023-04-08T11:48:13;15.45;;;10.05;;
29732;SDS011;16643;43.158;25.302;2023-04-08T11:50:41;12.05;;;9.68;;
29732;SDS011;16643;43.158;25.302;2023-04-08T11:53:19;13.50;;;9.70;;
29732;SDS011;16643;43.158;25.302;2023-04-08T11:55:47;14.02;;;10.40;;
29732;SDS011;16643;43.158;25.302;2023-04-08T11:58:13;13.07;;;10.13;;
29732;SDS011;16643;43.158;25.302;2023-04-08T12:00:39;13.65;;;10.15;;
29732;SDS011;16643;43.158;25.302;2023-04-08T12:03:05;15.48;;;11.98;;
29732;SDS011;16643;43.158;25.302;2023-04-08T12:05:31;14.02;;;11.05;;
29732;SDS011;16643;43.158;25.302;2023-04-08T12:07:57;15.00;;;10.35;;
29732;SDS011;16643;43.158;25.302;2023-04-08T12:10:23;14.77;;;11.00;;
29732;SDS011;16643;43.158;25.302;2023-04-08T12:12:52;14.57;;;10.93;;
29732;SDS011;16643;43.158;25.302;2023-04-08T12:15:17;18.58;;;13.00;;
29732;SDS011;16643;43.158;25.302;2023-04-08T12:17:43;17.05;;;11.23;;
29732;SDS011;16643;43.158;25.302;2023-04-08T12:20:09;15.18;;;10.98;;
29732;SDS011;16643;43.158;25.302;2023-04-08T12:22:36;16.45;;;11.45;;
29732;SDS011;16643;43.158;25.302;2023-04-08T12:25:01;14.27;;;10.52;;
29732;SDS011;16643;43.158;25.302;2023-04-08T12:27:30;15.32;;;10.45;;
29732;SDS011;16643;43.158;25.302;2023-04-08T12:30:00;13.88;;;10.40;;
29732;SDS011;16643;43.158;25.302;2023-04-08T12:32:26;15.52;;;10.48;;
29732;SDS011;16643;43.158;25.302;2023-04-08T12:34:52;16.73;;;11.48;;
29732;SDS011;16643;43.158;25.302;2023-04-08T12:37:17;16.08;;;11.77;;
29732;SDS011;16643;43.158;25.302;2023-04-08T12:39:44;13.80;;;11.18;;
29732;SDS011;16643;43.158;25.302;2023-04-08T12:42:10;17.58;;;11.27;;
29732;SDS011;16643;43.158;25.302;2023-04-08T12:44:36;17.70;;;11.90;;
29732;SDS011;16643;43.158;25.302;2023-04-08T12:47:01;17.02;;;11.85;;
29732;SDS011;16643;43.158;25.302;2023-04-08T12:49:27;18.02;;;11.90;;
29732;SDS011;16643;43.158;25.302;2023-04-08T12:51:53;18.15;;;12.63;;
29732;SDS011;16643;43.158;25.302;2023-04-08T12:54:19;17.80;;;14.13;;
29732;SDS011;16643;43.158;25.302;2023-04-08T12:56:45;17.63;;;12.45;;
29732;SDS011;16643;43.158;25.302;2023-04-08T12:59:12;17.58;;;12.38;;
29732;SDS011;16643;43.158;25.302;2023-04-08T13:01:38;18.38;;;11.93;;
29732;SDS011;16643;43.158;25.302;2023-04-08T13:04:04;17.13;;;13.57;;
29732;SDS011;16643;43.158;25.302;2023-04-08T13:06:30;19.27;;;13.07;;
29732;SDS011;16643;43.158;25.302;2023-04-08T13:08:56;17.98;;;13.07;;
29732;SDS011;16643;43.158;25.302;2023-04-08T13:11:22;16.70;;;12.25;;
29732;SDS011;16643;43.158;25.302;2023-04-08T13:13:47;17.60;;;12.40;;
29732;SDS011;16643;43.158;25.302;2023-04-08T13:16:13;18.27;;;12.70;;
29732;SDS011;16643;43.158;25.302;2023-04-08T13:18:39;17.00;;;12.05;;
29732;SDS011;16643;43.158;25.302;2023-04-08T13:21:05;17.80;;;12.48;;
29732;SDS011;16643;43.158;25.302;2023-04-08T13:23:31;17.90;;;12.40;;
29732;SDS011;16643;43.158;25.302;2023-04-08T13:25:57;16.05;;;11.65;;
29732;SDS011;16643;43.158;25.302;2023-04-08T13:28:23;13.90;;;10.52;;
29732;SDS011;16643;43.158;25.302;2023-04-08T13:30:48;14.68;;;11.13;;
29732;SDS011;16643;43.158;25.302;2023-04-08T13:33:14;13.85;;;10.38;;
29732;SDS011;16643;43.158;25.302;2023-04-08T13:35:40;15.18;;;10.25;;
29732;SDS011;16643;43.158;25.302;2023-04-08T13:38:05;13.85;;;10.15;;
29732;SDS011;16643;43.158;25.302;2023-04-08T13:40:31;18.30;;;11.23;;
29732;SDS011;16643;43.158;25.302;2023-04-08T13:42:57;13.85;;;10.45;;
29732;SDS011;16643;43.158;25.302;2023-04-08T13:45:23;11.25;;;8.63;;
29732;SDS011;16643;43.158;25.302;2023-04-08T13:47:48;11.35;;;8.10;;
29732;SDS011;16643;43.158;25.302;2023-04-08T13:50:14;11.05;;;9.23;;
29732;SDS011;16643;43.158;25.302;2023-04-08T13:52:40;13.20;;;8.80;;
29732;SDS011;16643;43.158;25.302;2023-04-08T13:55:05;12.50;;;8.63;;
29732;SDS011;16643;43.158;25.302;2023-04-08T13:57:31;13.77;;;8.52;;
29732;SDS011;16643;43.158;25.302;2023-04-08T13:59:57;16.08;;;10.90;;
29732;SDS011;16643;43.158;25.302;2023-04-08T14:02:22;15.10;;;11.25;;
29732;SDS011;16643;43.158;25.302;2023-04-08T14:04:48;14.77;;;10.38;;
29732;SDS011;16643;43.158;25.302;2023-04-08T14:07:14;15.43;;;10.65;;
29732;SDS011;16643;43.158;25.302;2023-04-08T14:09:39;12.90;;;9.05;;
29732;SDS011;16643;43.158;25.302;2023-04-08T14:12:05;13.93;;;10.18;;
29732;SDS011;16643;43.158;25.302;2023-04-08T14:14:31;15.18;;;10.77;;
29732;SDS011;16643;43.158;25.302;2023-04-08T14:16:57;13.98;;;9.95;;
29732;SDS011;16643;43.158;25.302;2023-04-08T14:19:22;14.63;;;9.98;;
29732;SDS011;16643;43.158;25.302;2023-04-08T14:21:48;13.10;;;9.65;;
29732;SDS011;16643;43.158;25.302;2023-04-08T14:24:14;12.43;;;10.23;;
29732;SDS011;16643;43.158;25.302;2023-04-08T14:26:40;11.55;;;8.40;;
29732;SDS011;16643;43.158;25.302;2023-04-08T14:29:06;10.95;;;7.32;;
29732;SDS011;16643;43.158;25.302;2023-04-08T14:31:33;12.82;;;8.20;;
29732;SDS011;16643;43.158;25.302;2023-04-08T14:33:59;12.27;;;8.80;;